createdAt,value
2023-11-20T00:02:20.057Z,98280.79
2023-11-20T00:04:48.179Z,98280.51
2023-11-20T00:07:16.069Z,98279.21
2023-11-20T00:09:43.913Z,98280.67
2023-11-20T00:12:11.911Z,98279.18
2023-11-20T00:14:39.723Z,98282.20
2023-11-20T00:17:07.517Z,98280.14
2023-11-20T00:19:35.365Z,98277.55
2023-11-20T00:22:03.453Z,98275.74
2023-11-20T00:24:31.452Z,98279.16
2023-11-20T00:26:59.387Z,98281.16
2023-11-20T00:29:27.493Z,98285.35
2023-11-20T00:31:55.374Z,98286.46
2023-11-20T00:34:23.464Z,98288.84
2023-11-20T00:36:51.287Z,98283.34
2023-11-20T00:39:20.723Z,98288.50
2023-11-20T00:41:48.525Z,98293.23
2023-11-20T00:44:16.426Z,98291.77
2023-11-20T00:46:44.347Z,98292.66
2023-11-20T00:49:12.326Z,98293.77
2023-11-20T00:51:40.160Z,98294.95
2023-11-20T00:54:08.332Z,98296.74
2023-11-20T00:56:36.116Z,98297.38
2023-11-20T00:59:04.456Z,98293.92
2023-11-20T01:01:36.813Z,98293.89
2023-11-20T01:04:05.460Z,98288.00
2023-11-20T01:06:40.315Z,98287.96
2023-11-20T01:09:08.541Z,98288.06
2023-11-20T01:11:37.914Z,98286.68
2023-11-20T01:14:07.321Z,98288.61
2023-11-20T01:16:35.135Z,98291.21
2023-11-20T01:19:03.152Z,98290.19
2023-11-20T01:21:31.085Z,98294.34
2023-11-20T01:23:59.096Z,98298.67
2023-11-20T01:26:26.891Z,98299.79
2023-11-20T01:28:54.792Z,98297.21
2023-11-20T01:31:22.756Z,98296.05
2023-11-20T01:33:50.630Z,98298.41
2023-11-20T01:36:18.484Z,98301.77
2023-11-20T01:38:46.314Z,98304.19
2023-11-20T01:41:14.123Z,98305.48
2023-11-20T01:43:41.954Z,98306.16
2023-11-20T01:46:13.015Z,98306.44
2023-11-20T01:48:41.867Z,98301.31
2023-11-20T01:51:09.904Z,98298.79
2023-11-20T01:53:40.019Z,98297.54
2023-11-20T01:56:11.814Z,98294.57
2023-11-20T01:58:39.953Z,98296.56
2023-11-20T02:01:08.818Z,98296.35
2023-11-20T02:03:36.891Z,98293.98
2023-11-20T02:06:05.023Z,98289.64
2023-11-20T02:08:32.949Z,98286.84
2023-11-20T02:11:03.131Z,98285.77
2023-11-20T02:13:31.842Z,98286.84
2023-11-20T02:15:59.716Z,98286.27
2023-11-20T02:18:35.559Z,98283.80
2023-11-20T02:21:06.189Z,98285.13
2023-11-20T02:23:34.389Z,98283.13
2023-11-20T02:26:11.132Z,98290.30
2023-11-20T02:28:40.924Z,98291.04
2023-11-20T02:31:08.932Z,98293.33
2023-11-20T02:33:40.491Z,98292.05
2023-11-20T02:36:08.717Z,98295.36
2023-11-20T02:38:37.343Z,98296.20
2023-11-20T02:41:06.086Z,98296.91
2023-11-20T02:43:39.956Z,98293.23
2023-11-20T02:46:08.040Z,98299.05
2023-11-20T02:48:35.905Z,98301.61
2023-11-20T02:51:06.203Z,98299.42
2023-11-20T02:53:34.075Z,98297.94
2023-11-20T02:56:02.142Z,98298.27
2023-11-20T02:58:30.117Z,98294.89
2023-11-20T03:00:58.898Z,98292.33
2023-11-20T03:03:26.820Z,98289.40
2023-11-20T03:05:54.705Z,98290.31
2023-11-20T03:08:23.976Z,98293.22
2023-11-20T03:10:51.767Z,98292.07
2023-11-20T03:13:19.801Z,98293.28
2023-11-20T03:15:47.650Z,98288.30
2023-11-20T03:18:15.495Z,98289.61
2023-11-20T03:20:43.425Z,98289.48
2023-11-20T03:23:14.479Z,98283.52
2023-11-20T03:25:42.364Z,98284.52
2023-11-20T03:28:11.467Z,98284.11
2023-11-20T03:30:39.816Z,98282.46
2023-11-20T03:33:08.925Z,98282.73
2023-11-20T03:35:37.119Z,98282.79
2023-11-20T03:38:04.892Z,98278.48
2023-11-20T03:40:32.768Z,98272.76
2023-11-20T03:43:00.596Z,98272.92
2023-11-20T03:45:28.434Z,98271.58
2023-11-20T03:47:56.238Z,98270.98
2023-11-20T03:50:24.010Z,98267.90
2023-11-20T03:52:52.615Z,98266.73
2023-11-20T03:55:20.508Z,98260.04
2023-11-20T03:57:48.388Z,98268.09
2023-11-20T04:00:17.560Z,98268.46
2023-11-20T04:02:45.426Z,98261.73
2023-11-20T04:05:13.310Z,98254.58
2023-11-20T04:07:41.112Z,98255.84
2023-11-20T04:10:09.847Z,98257.23
2023-11-20T04:12:37.903Z,98255.44
2023-11-20T04:15:06.187Z,98252.06
2023-11-20T04:17:34.638Z,98250.70
2023-11-20T04:20:04.449Z,98253.23
2023-11-20T04:22:33.537Z,98249.54
2023-11-20T04:25:01.927Z,98252.60
2023-11-20T04:27:30.177Z,98248.91
2023-11-20T04:29:58.145Z,98251.59
2023-11-20T04:32:27.110Z,98255.19
2023-11-20T04:34:55.242Z,98252.84
2023-11-20T04:37:23.025Z,98254.39
2023-11-20T04:39:53.710Z,98249.46
2023-11-20T04:42:21.566Z,98255.23
2023-11-20T04:44:49.395Z,98247.31
2023-11-20T04:47:17.265Z,98245.27
2023-11-20T04:49:45.122Z,98247.77
2023-11-20T04:52:13.063Z,98244.71
2023-11-20T04:54:40.992Z,98246.45
2023-11-20T04:57:10.795Z,98246.55
2023-11-20T04:59:38.752Z,98248.52
2023-11-20T05:02:07.067Z,98253.59
2023-11-20T05:04:34.901Z,98252.05
2023-11-20T05:07:03.710Z,98252.33
2023-11-20T05:09:32.051Z,98251.56
2023-11-20T05:12:01.738Z,98254.95
2023-11-20T05:14:29.652Z,98250.16
2023-11-20T05:16:57.703Z,98252.41
2023-11-20T05:19:25.610Z,98251.18
2023-11-20T05:21:53.693Z,98252.45
2023-11-20T05:24:21.522Z,98245.43
2023-11-20T05:26:49.325Z,98244.67
2023-11-20T05:29:20.263Z,98248.44
2023-11-20T05:31:48.144Z,98246.73
2023-11-20T05:34:16.289Z,98245.01
2023-11-20T05:36:44.199Z,98247.80
2023-11-20T05:39:12.653Z,98249.83
2023-11-20T05:41:40.464Z,98253.70
2023-11-20T05:44:08.993Z,98255.88
2023-11-20T05:46:37.564Z,98253.12
2023-11-20T05:49:05.534Z,98256.27
2023-11-20T05:51:33.470Z,98261.63
2023-11-20T05:54:01.430Z,98261.50
2023-11-20T05:56:32.231Z,98257.98
2023-11-20T05:59:02.236Z,98259.88
2023-11-20T06:01:41.368Z,98264.45
2023-11-20T06:04:15.947Z,98266.61
2023-11-20T06:06:44.288Z,98264.20
2023-11-20T06:09:12.322Z,98266.65
2023-11-20T06:11:49.397Z,98266.73
2023-11-20T06:14:17.951Z,98268.55
2023-11-20T06:16:49.739Z,98269.55
2023-11-20T06:19:18.274Z,98269.54
2023-11-20T06:21:50.613Z,98274.69
2023-11-20T06:24:20.488Z,98277.80
2023-11-20T06:26:48.715Z,98278.68
2023-11-20T06:29:16.492Z,98276.27
2023-11-20T06:31:44.559Z,98278.91
2023-11-20T06:34:12.961Z,98280.60
2023-11-20T06:36:40.878Z,98288.89
2023-11-20T06:39:08.691Z,98293.69
2023-11-20T06:41:39.076Z,98294.23
2023-11-20T06:44:07.063Z,98299.14
2023-11-20T06:46:35.116Z,98297.84
2023-11-20T06:49:03.022Z,98298.98
2023-11-20T06:51:31.243Z,98304.27
2023-11-20T06:53:59.629Z,98301.08
2023-11-20T06:56:27.793Z,98304.19
2023-11-20T06:58:58.312Z,98305.75
2023-11-20T07:01:26.257Z,98301.02
2023-11-20T07:03:55.119Z,98307.96
2023-11-20T07:06:24.750Z,98305.40
2023-11-20T07:08:54.854Z,98304.98
2023-11-20T07:11:22.992Z,98305.29
2023-11-20T07:13:50.888Z,98312.84
2023-11-20T07:16:19.134Z,98307.45
2023-11-20T07:18:47.279Z,98310.29
2023-11-20T07:21:17.206Z,98309.96
2023-11-20T07:23:45.004Z,98311.97
2023-11-20T07:26:17.658Z,98311.34
2023-11-20T07:28:47.696Z,98317.83
2023-11-20T07:31:26.027Z,98316.41
2023-11-20T07:33:54.029Z,98317.73
2023-11-20T07:36:22.160Z,98323.30
2023-11-20T07:38:50.062Z,98318.77
2023-11-20T07:41:18.034Z,98315.02
2023-11-20T07:43:46.579Z,98319.00
2023-11-20T07:46:14.726Z,98315.01
2023-11-20T07:48:42.653Z,98318.84
2023-11-20T07:51:10.597Z,98323.41
2023-11-20T07:53:42.429Z,98324.61
2023-11-20T07:56:13.423Z,98324.77
2023-11-20T07:58:44.666Z,98322.57
2023-11-20T08:01:12.550Z,98320.67
2023-11-20T08:03:40.802Z,98323.52
2023-11-20T08:06:17.159Z,98324.58
2023-11-20T08:08:50.061Z,98326.50
2023-11-20T08:11:18.676Z,98325.30
2023-11-20T08:13:47.684Z,98328.34
2023-11-20T08:16:15.862Z,98327.14
2023-11-20T08:18:43.773Z,98327.80
2023-11-20T08:21:11.675Z,98326.16
2023-11-20T08:23:39.852Z,98326.55
2023-11-20T08:26:07.801Z,98329.69
2023-11-20T08:28:35.617Z,98333.20
2023-11-20T08:31:03.534Z,98331.89
2023-11-20T08:33:31.485Z,98334.65
2023-11-20T08:35:59.446Z,98328.07
2023-11-20T08:38:27.273Z,98326.23
2023-11-20T08:40:55.242Z,98325.84
2023-11-20T08:43:24.380Z,98325.50
2023-11-20T08:46:03.280Z,98327.05
2023-11-20T08:48:36.954Z,98323.73
2023-11-20T08:51:09.066Z,98323.66
2023-11-20T08:53:37.003Z,98322.48
2023-11-20T08:56:05.984Z,98320.48
2023-11-20T08:58:33.795Z,98320.52
2023-11-20T09:01:01.751Z,98321.23
2023-11-20T09:03:29.602Z,98313.70
2023-11-20T09:05:59.166Z,98313.97
2023-11-20T09:08:27.528Z,98312.44
2023-11-20T09:10:55.415Z,98316.70
2023-11-20T09:13:23.276Z,98311.64
2023-11-20T09:15:51.207Z,98309.52
2023-11-20T09:18:19.008Z,98310.11
2023-11-20T09:20:46.949Z,98311.46
2023-11-20T09:23:14.905Z,98310.47
2023-11-20T09:25:43.888Z,98311.79
2023-11-20T09:28:11.796Z,98315.87
2023-11-20T09:30:39.705Z,98312.61
2023-11-20T09:33:07.571Z,98314.88
2023-11-20T09:35:37.406Z,98312.88
2023-11-20T09:38:06.631Z,98316.02
2023-11-20T09:40:34.591Z,98317.22
2023-11-20T09:43:03.122Z,98321.45
2023-11-20T09:45:42.881Z,98316.99
2023-11-20T09:48:19.567Z,98313.72
2023-11-20T09:51:02.816Z,98310.86
2023-11-20T09:53:39.385Z,98313.96
2023-11-20T09:56:12.591Z,98304.04
2023-11-20T09:58:43.074Z,98299.73
2023-11-20T10:01:14.345Z,98297.88
2023-11-20T10:03:44.806Z,98292.58
2023-11-20T10:06:20.719Z,98290.29
2023-11-20T10:08:52.364Z,98283.96
2023-11-20T10:11:23.404Z,98286.67
2023-11-20T10:13:52.852Z,98282.83
2023-11-20T10:16:24.457Z,98281.86
2023-11-20T10:18:55.723Z,98284.01
2023-11-20T10:21:23.818Z,98281.27
2023-11-20T10:23:53.852Z,98276.69
2023-11-20T10:26:22.807Z,98273.92
2023-11-20T10:28:50.999Z,98276.52
2023-11-20T10:31:19.008Z,98277.70
2023-11-20T10:33:47.137Z,98274.85
2023-11-20T10:36:18.096Z,98275.70
2023-11-20T10:38:46.399Z,98273.23
2023-11-20T10:41:14.496Z,98271.74
2023-11-20T10:43:42.968Z,98268.21
2023-11-20T10:46:11.440Z,98264.14
2023-11-20T10:48:40.325Z,98260.29
2023-11-20T10:51:11.341Z,98261.41
2023-11-20T10:53:43.901Z,98251.14
2023-11-20T10:56:13.990Z,98252.66
2023-11-20T10:58:45.182Z,98250.80
2023-11-20T11:03:38.540Z,98251.81
2023-11-20T11:06:12.222Z,98258.91
2023-11-20T11:08:46.695Z,98255.51
2023-11-20T11:11:17.744Z,98251.53
2023-11-20T11:13:49.057Z,98251.70
2023-11-20T11:16:26.594Z,98251.95
2023-11-20T11:19:02.957Z,98252.05
2023-11-20T11:21:39.812Z,98247.94
2023-11-20T11:24:14.716Z,98248.45
2023-11-20T11:26:53.590Z,98249.02
2023-11-20T11:29:27.065Z,98245.97
2023-11-20T11:32:07.468Z,98244.02
2023-11-20T11:34:53.953Z,98241.77
2023-11-20T11:37:39.145Z,98239.90
2023-11-20T11:40:45.156Z,98236.71
2023-11-20T11:43:45.744Z,98239.77
2023-11-20T11:46:13.572Z,98235.23
2023-11-20T11:48:42.005Z,98227.14
2023-11-20T11:51:26.709Z,98231.21
2023-11-20T11:54:17.105Z,98226.61
2023-11-20T11:56:51.031Z,98227.66
2023-11-20T11:59:27.774Z,98223.59
2023-11-20T12:01:55.688Z,98219.41
2023-11-20T12:04:58.081Z,98216.28
2023-11-20T12:07:40.310Z,98216.44
2023-11-20T12:10:12.947Z,98211.20
2023-11-20T12:12:52.377Z,98208.59
2023-11-20T12:16:02.848Z,98203.46
2023-11-20T12:18:37.191Z,98204.35
2023-11-20T12:21:05.650Z,98204.12
2023-11-20T12:23:43.986Z,98202.22
2023-11-20T12:26:13.750Z,98201.39
2023-11-20T12:28:42.881Z,98199.04
2023-11-20T12:31:12.817Z,98199.81
2023-11-20T12:33:44.842Z,98199.10
2023-11-20T12:36:13.590Z,98200.89
2023-11-20T12:38:47.505Z,98198.04
2023-11-20T12:41:17.067Z,98194.15
2023-11-20T12:43:45.237Z,98194.55
2023-11-20T12:46:18.531Z,98200.23
2023-11-20T12:48:48.223Z,98200.76
2023-11-20T12:51:16.394Z,98203.23
2023-11-20T12:53:45.194Z,98205.80
2023-11-20T12:56:15.454Z,98206.35
2023-11-20T12:58:44.288Z,98202.92
2023-11-20T13:01:12.692Z,98203.07
2023-11-20T13:03:42.042Z,98201.16
2023-11-20T13:06:12.009Z,98203.24
2023-11-20T13:08:40.920Z,98201.02
2023-11-20T13:11:12.843Z,98198.48
2023-11-20T13:13:42.906Z,98195.09
2023-11-20T13:16:17.903Z,98195.14
2023-11-20T13:18:50.963Z,98199.62
2023-11-20T13:21:27.503Z,98194.98
2023-11-20T13:24:01.218Z,98199.80
2023-11-20T13:26:29.892Z,98201.13
2023-11-20T13:29:01.255Z,98202.33
2023-11-20T13:31:36.556Z,98203.34
2023-11-20T13:34:08.314Z,98207.45
2023-11-20T13:36:39.187Z,98202.88
2023-11-20T13:39:20.892Z,98204.36
2023-11-20T13:41:49.170Z,98203.20
2023-11-20T13:44:16.957Z,98198.23
2023-11-20T13:46:44.823Z,98199.29
2023-11-20T13:49:15.754Z,98198.59
2023-11-20T13:51:44.342Z,98196.63
2023-11-20T13:54:12.164Z,98197.74
2023-11-20T13:56:40.109Z,98202.23
2023-11-20T13:59:10.708Z,98206.33
2023-11-20T14:01:40.628Z,98202.85
2023-11-20T14:04:11.124Z,98206.31
2023-11-20T14:06:40.990Z,98200.88
2023-11-20T14:09:08.849Z,98202.63
2023-11-20T14:11:37.489Z,98203.72
2023-11-20T14:14:06.668Z,98203.27
2023-11-20T14:16:34.638Z,98203.84
2023-11-20T14:19:02.592Z,98206.23
2023-11-20T14:21:32.262Z,98208.19
2023-11-20T14:24:00.280Z,98212.11
2023-11-20T14:26:34.163Z,98212.72
2023-11-20T14:29:04.530Z,98213.63
2023-11-20T14:31:32.991Z,98212.23
2023-11-20T14:34:01.167Z,98213.93
2023-11-20T14:36:29.282Z,98215.79
2023-11-20T14:38:59.494Z,98216.99
2023-11-20T14:41:28.333Z,98215.55
2023-11-20T14:43:56.333Z,98212.08
2023-11-20T14:46:24.436Z,98211.46
2023-11-20T14:48:52.936Z,98209.31
2023-11-20T14:51:22.096Z,98213.33
2023-11-20T14:53:50.863Z,98207.42
2023-11-20T14:56:19.284Z,98209.89
2023-11-20T14:58:47.633Z,98210.26
2023-11-20T15:01:16.132Z,98209.04
2023-11-20T15:03:44.245Z,98211.64
2023-11-20T15:06:15.116Z,98212.09
2023-11-20T15:08:43.710Z,98210.44
2023-11-20T15:11:11.516Z,98210.94
2023-11-20T15:13:39.494Z,98210.44
2023-11-20T15:16:07.909Z,98209.20
2023-11-20T15:18:38.089Z,98209.73
2023-11-20T15:21:07.219Z,98210.54
2023-11-20T15:23:35.070Z,98205.73
2023-11-20T15:26:03.220Z,98208.86
2023-11-20T15:28:31.114Z,98208.11
2023-11-20T15:30:59.013Z,98209.52
2023-11-20T15:33:26.930Z,98207.34
2023-11-20T15:35:56.428Z,98203.67
2023-11-20T15:38:24.271Z,98203.06
2023-11-20T15:40:52.118Z,98205.34
2023-11-20T15:43:20.055Z,98203.95
2023-11-20T15:45:53.834Z,98202.48
2023-11-20T15:48:22.611Z,98202.23
2023-11-20T15:50:50.436Z,98206.23
2023-11-20T15:53:18.315Z,98205.94
2023-11-20T15:55:46.175Z,98207.20
2023-11-20T15:58:14.062Z,98212.71
2023-11-20T16:00:41.926Z,98213.80
2023-11-20T16:03:09.862Z,98215.62
2023-11-20T16:05:37.775Z,98215.11
2023-11-20T16:08:06.109Z,98210.20
2023-11-20T16:10:34.122Z,98211.98
2023-11-20T16:13:04.614Z,98210.05
2023-11-20T16:15:32.529Z,98211.06
2023-11-20T16:18:00.403Z,98217.42
2023-11-20T16:20:30.330Z,98213.34
2023-11-20T16:22:58.533Z,98212.66
2023-11-20T16:25:36.640Z,98209.50
2023-11-20T16:28:12.033Z,98213.20
2023-11-20T16:30:39.998Z,98214.19
2023-11-20T16:33:08.190Z,98213.10
2023-11-20T16:35:38.410Z,98209.69
2023-11-20T16:38:06.453Z,98211.44
2023-11-20T16:40:36.210Z,98213.16
2023-11-20T16:43:04.193Z,98211.34
2023-11-20T16:45:32.016Z,98212.60
2023-11-20T16:48:00.152Z,98212.87
2023-11-20T16:50:28.121Z,98209.89
2023-11-20T16:52:56.016Z,98210.11
2023-11-20T16:55:24.313Z,98204.30
2023-11-20T16:57:52.432Z,98205.01
2023-11-20T17:00:20.772Z,98202.55
2023-11-20T17:02:48.941Z,98204.65
2023-11-20T17:05:16.980Z,98211.87
2023-11-20T17:07:44.929Z,98212.41
2023-11-20T17:10:13.187Z,98211.83
2023-11-20T17:12:41.983Z,98207.71
2023-11-20T17:15:11.268Z,98208.23
2023-11-20T17:17:40.966Z,98205.92
2023-11-20T17:20:14.617Z,98206.46
2023-11-20T17:22:44.768Z,98206.91
